sensor_id;sensor_type;location;lat;lon;timestamp;pressure;altitude;pressure_sealevel;temperature;humidity
75192;BME280;63771;52.580;9.734;2023-06-14T00:02:05;101319.13;;;17.51;50.60
75192;BME280;63771;52.580;9.734;2023-06-14T00:04:33;101320.63;;;17.34;51.52
75192;BME280;63771;52.580;9.734;2023-06-14T00:06:58;101318.81;;;17.33;51.35
75192;BME280;63771;52.580;9.734;2023-06-14T00:09:24;101320.03;;;17.25;51.70
75192;BME280;63771;52.580;9.734;2023-06-14T00:11:49;101321.81;;;17.26;51.64
75192;BME280;63771;52.580;9.734;2023-06-14T00:14:15;101322.59;;;17.11;52.35
75192;BME280;63771;52.580;9.734;2023-06-14T00:16:40;101318.94;;;17.08;52.31
75192;BME280;63771;52.580;9.734;2023-06-14T00:19:10;101327.75;;;17.11;52.08
75192;BME280;63771;52.580;9.734;2023-06-14T00:21:36;101334.28;;;17.06;52.51
75192;BME280;63771;52.580;9.734;2023-06-14T00:24:03;101337.47;;;17.02;52.62
75192;BME280;63771;52.580;9.734;2023-06-14T00:26:29;101327.44;;;17.07;52.48
75192;BME280;63771;52.580;9.734;2023-06-14T00:28:55;101337.47;;;17.02;52.65
75192;BME280;63771;52.580;9.734;2023-06-14T00:31:22;101335.47;;;16.98;52.97
75192;BME280;63771;52.580;9.734;2023-06-14T00:33:47;101325.84;;;16.95;53.31
75192;BME280;63771;52.580;9.734;2023-06-14T00:36:12;101339.88;;;16.74;53.74
75192;BME280;63771;52.580;9.734;2023-06-14T00:38:38;101341.56;;;16.74;54.04
75192;BME280;63771;52.580;9.734;2023-06-14T00:41:03;101342.56;;;16.76;53.86
75192;BME280;63771;52.580;9.734;2023-06-14T00:43:29;101351.78;;;16.72;53.96
75192;BME280;63771;52.580;9.734;2023-06-14T00:45:54;101341.22;;;16.69;54.21
75192;BME280;63771;52.580;9.734;2023-06-14T00:48:20;101345.25;;;16.52;55.34
75192;BME280;63771;52.580;9.734;2023-06-14T00:50:46;101343.09;;;16.58;54.66
75192;BME280;63771;52.580;9.734;2023-06-14T00:53:13;101346.94;;;16.52;55.37
75192;BME280;63771;52.580;9.734;2023-06-14T00:55:40;101348.97;;;16.44;55.08
75192;BME280;63771;52.580;9.734;2023-06-14T00:58:06;101345.50;;;16.43;55.85
75192;BME280;63771;52.580;9.734;2023-06-14T01:00:31;101347.56;;;16.36;56.09
75192;BME280;63771;52.580;9.734;2023-06-14T01:02:56;101346.56;;;16.34;56.39
75192;BME280;63771;52.580;9.734;2023-06-14T01:05:25;101353.53;;;16.35;55.92
75192;BME280;63771;52.580;9.734;2023-06-14T01:10:42;101351.28;;;16.28;56.04
75192;BME280;63771;52.580;9.734;2023-06-14T01:15:38;101351.28;;;16.28;56.17
75192;BME280;63771;52.580;9.734;2023-06-14T01:18:04;101350.41;;;16.27;56.36
75192;BME280;63771;52.580;9.734;2023-06-14T01:20:32;101350.63;;;16.30;55.61
75192;BME280;63771;52.580;9.734;2023-06-14T01:22:58;101356.34;;;16.26;56.33
75192;BME280;63771;52.580;9.734;2023-06-14T01:25:24;101358.03;;;16.26;55.90
75192;BME280;63771;52.580;9.734;2023-06-14T01:28:01;101351.09;;;16.25;56.06
75192;BME280;63771;52.580;9.734;2023-06-14T01:30:29;101358.69;;;16.23;56.32
75192;BME280;63771;52.580;9.734;2023-06-14T01:32:55;101364.13;;;16.14;56.42
75192;BME280;63771;52.580;9.734;2023-06-14T01:35:22;101358.50;;;16.20;55.96
75192;BME280;63771;52.580;9.734;2023-06-14T01:37:49;101358.22;;;16.04;57.06
75192;BME280;63771;52.580;9.734;2023-06-14T01:40:15;101360.38;;;15.98;56.59
75192;BME280;63771;52.580;9.734;2023-06-14T01:42:41;101353.88;;;16.03;56.42
75192;BME280;63771;52.580;9.734;2023-06-14T01:45:08;101350.13;;;16.11;55.66
75192;BME280;63771;52.580;9.734;2023-06-14T01:47:35;101359.75;;;16.13;55.84
75192;BME280;63771;52.580;9.734;2023-06-14T01:50:02;101359.53;;;16.10;55.88
75192;BME280;63771;52.580;9.734;2023-06-14T01:52:28;101359.09;;;16.04;56.02
75192;BME280;63771;52.580;9.734;2023-06-14T01:54:53;101363.88;;;16.11;56.03
75192;BME280;63771;52.580;9.734;2023-06-14T01:57:19;101371.19;;;16.05;56.59
75192;BME280;63771;52.580;9.734;2023-06-14T01:59:45;101363.25;;;16.02;55.86
75192;BME280;63771;52.580;9.734;2023-06-14T02:02:14;101361.03;;;15.95;56.51
75192;BME280;63771;52.580;9.734;2023-06-14T02:04:39;101365.75;;;15.89;57.09
75192;BME280;63771;52.580;9.734;2023-06-14T02:07:05;101369.53;;;15.94;56.53
75192;BME280;63771;52.580;9.734;2023-06-14T02:09:30;101356.44;;;15.91;56.82
75192;BME280;63771;52.580;9.734;2023-06-14T02:11:55;101360.69;;;15.90;57.10
75192;BME280;63771;52.580;9.734;2023-06-14T02:14:21;101360.38;;;15.86;56.92
75192;BME280;63771;52.580;9.734;2023-06-14T02:16:46;101366.25;;;15.72;57.89
75192;BME280;63771;52.580;9.734;2023-06-14T02:19:17;101372.94;;;15.70;57.65
75192;BME280;63771;52.580;9.734;2023-06-14T02:21:43;101362.97;;;15.62;57.80
75192;BME280;63771;52.580;9.734;2023-06-14T02:24:09;101371.94;;;15.56;58.57
75192;BME280;63771;52.580;9.734;2023-06-14T02:26:34;101373.72;;;15.57;58.40
75192;BME280;63771;52.580;9.734;2023-06-14T02:29:00;101366.44;;;15.51;58.67
75192;BME280;63771;52.580;9.734;2023-06-14T02:31:26;101374.91;;;15.50;58.88
75192;BME280;63771;52.580;9.734;2023-06-14T02:33:52;101374.28;;;15.41;59.17
75192;BME280;63771;52.580;9.734;2023-06-14T02:36:17;101381.41;;;15.22;60.23
75192;BME280;63771;52.580;9.734;2023-06-14T02:38:43;101375.81;;;15.16;60.18
75192;BME280;63771;52.580;9.734;2023-06-14T02:41:08;101376.97;;;15.19;59.72
75192;BME280;63771;52.580;9.734;2023-06-14T02:43:33;101375.81;;;15.04;61.21
75192;BME280;63771;52.580;9.734;2023-06-14T02:45:59;101365.19;;;14.99;61.01
75192;BME280;63771;52.580;9.734;2023-06-14T02:48:24;101377.38;;;15.02;61.13
75192;BME280;63771;52.580;9.734;2023-06-14T02:50:49;101378.59;;;14.95;61.32
75192;BME280;63771;52.580;9.734;2023-06-14T02:53:15;101379.03;;;14.90;61.73
75192;BME280;63771;52.580;9.734;2023-06-14T02:55:40;101382.59;;;14.92;61.36
75192;BME280;63771;52.580;9.734;2023-06-14T02:58:06;101378.25;;;14.91;60.71
75192;BME280;63771;52.580;9.734;2023-06-14T03:00:31;101387.38;;;14.87;62.10
75192;BME280;63771;52.580;9.734;2023-06-14T03:02:56;101396.56;;;14.83;61.82
75192;BME280;63771;52.580;9.734;2023-06-14T03:05:22;101393.53;;;14.77;62.28
75192;BME280;63771;52.580;9.734;2023-06-14T03:07:48;101404.81;;;14.79;61.72
75192;BME280;63771;52.580;9.734;2023-06-14T03:10:15;101406.78;;;14.72;62.26
75192;BME280;63771;52.580;9.734;2023-06-14T03:12:41;101411.91;;;14.72;62.23
75192;BME280;63771;52.580;9.734;2023-06-14T03:15:07;101413.56;;;14.59;62.82
75192;BME280;63771;52.580;9.734;2023-06-14T03:17:32;101416.59;;;14.66;62.77
75192;BME280;63771;52.580;9.734;2023-06-14T03:20:01;101424.34;;;14.55;63.55
75192;BME280;63771;52.580;9.734;2023-06-14T03:22:27;101420.78;;;14.53;63.18
75192;BME280;63771;52.580;9.734;2023-06-14T03:24:53;101423.88;;;14.49;63.94
75192;BME280;63771;52.580;9.734;2023-06-14T03:27:19;101418.34;;;14.45;63.41
75192;BME280;63771;52.580;9.734;2023-06-14T03:29:44;101423.78;;;14.48;63.81
75192;BME280;63771;52.580;9.734;2023-06-14T03:32:10;101428.91;;;14.48;63.29
75192;BME280;63771;52.580;9.734;2023-06-14T03:34:35;101436.47;;;14.46;63.45
75192;BME280;63771;52.580;9.734;2023-06-14T03:37:01;101435.97;;;14.40;64.22
75192;BME280;63771;52.580;9.734;2023-06-14T03:39:26;101439.53;;;14.30;64.82
75192;BME280;63771;52.580;9.734;2023-06-14T03:41:51;101441.88;;;14.39;63.70
75192;BME280;63771;52.580;9.734;2023-06-14T03:44:18;101445.06;;;14.47;63.55
75192;BME280;63771;52.580;9.734;2023-06-14T03:46:44;101450.47;;;14.50;63.69
75192;BME280;63771;52.580;9.734;2023-06-14T03:49:10;101444.19;;;14.46;64.13
75192;BME280;63771;52.580;9.734;2023-06-14T03:51:36;101453.72;;;14.37;63.71
75192;BME280;63771;52.580;9.734;2023-06-14T03:54:01;101454.38;;;14.34;64.57
75192;BME280;63771;52.580;9.734;2023-06-14T03:56:26;101441.66;;;14.36;64.21
75192;BME280;63771;52.580;9.734;2023-06-14T03:58:52;101442.94;;;14.41;64.33
75192;BME280;63771;52.580;9.734;2023-06-14T04:01:17;101452.03;;;14.48;64.06
75192;BME280;63771;52.580;9.734;2023-06-14T04:03:43;101456.88;;;14.45;64.55
75192;BME280;63771;52.580;9.734;2023-06-14T04:06:08;101460.53;;;14.36;65.06
75192;BME280;63771;52.580;9.734;2023-06-14T04:08:34;101465.00;;;14.39;64.40
75192;BME280;63771;52.580;9.734;2023-06-14T04:11:00;101459.91;;;14.29;65.97
75192;BME280;63771;52.580;9.734;2023-06-14T04:13:25;101460.44;;;14.25;66.04
75192;BME280;63771;52.580;9.734;2023-06-14T04:15:51;101459.91;;;14.29;65.65
75192;BME280;63771;52.580;9.734;2023-06-14T04:18:16;101462.44;;;14.39;64.83
75192;BME280;63771;52.580;9.734;2023-06-14T04:20:43;101465.78;;;14.38;66.07
75192;BME280;63771;52.580;9.734;2023-06-14T04:23:17;101460.13;;;14.42;65.65
75192;BME280;63771;52.580;9.734;2023-06-14T04:25:45;101462.31;;;14.38;66.38
75192;BME280;63771;52.580;9.734;2023-06-14T04:28:14;101475.38;;;14.41;66.00
75192;BME280;63771;52.580;9.734;2023-06-14T04:30:43;101474.47;;;14.40;66.11
75192;BME280;63771;52.580;9.734;2023-06-14T04:33:10;101475.00;;;14.46;66.04
75192;BME280;63771;52.580;9.734;2023-06-14T04:35:36;101476.81;;;14.47;66.20
75192;BME280;63771;52.580;9.734;2023-06-14T04:38:03;101477.28;;;14.53;65.88
75192;BME280;63771;52.580;9.734;2023-06-14T04:40:30;101477.88;;;14.61;65.67
75192;BME280;63771;52.580;9.734;2023-06-14T04:42:56;101474.19;;;14.57;65.88
75192;BME280;63771;52.580;9.734;2023-06-14T04:45:22;101478.22;;;14.66;65.41
75192;BME280;63771;52.580;9.734;2023-06-14T04:47:48;101475.81;;;14.67;65.54
75192;BME280;63771;52.580;9.734;2023-06-14T04:50:14;101479.06;;;14.76;65.07
75192;BME280;63771;52.580;9.734;2023-06-14T04:52:39;101478.63;;;14.82;65.48
75192;BME280;63771;52.580;9.734;2023-06-14T04:55:06;101481.69;;;14.88;64.36
75192;BME280;63771;52.580;9.734;2023-06-14T04:57:32;101472.53;;;14.92;64.77
75192;BME280;63771;52.580;9.734;2023-06-14T04:59:57;101487.31;;;14.94;64.41
75192;BME280;63771;52.580;9.734;2023-06-14T05:02:24;101490.53;;;15.03;63.47
75192;BME280;63771;52.580;9.734;2023-06-14T05:04:50;101491.59;;;15.05;63.98
75192;BME280;63771;52.580;9.734;2023-06-14T05:07:15;101491.78;;;15.08;63.67
75192;BME280;63771;52.580;9.734;2023-06-14T05:09:41;101497.78;;;15.19;63.68
75192;BME280;63771;52.580;9.734;2023-06-14T05:12:07;101486.81;;;15.22;63.41
75192;BME280;63771;52.580;9.734;2023-06-14T05:14:36;101487.06;;;15.25;63.92
75192;BME280;63771;52.580;9.734;2023-06-14T05:17:01;101496.66;;;15.27;63.99
75192;BME280;63771;52.580;9.734;2023-06-14T05:19:28;101493.44;;;15.30;63.65
75192;BME280;63771;52.580;9.734;2023-06-14T05:21:53;101494.34;;;15.30;63.51
75192;BME280;63771;52.580;9.734;2023-06-14T05:24:19;101505.09;;;15.36;63.45
75192;BME280;63771;52.580;9.734;2023-06-14T05:26:45;101495.00;;;15.39;63.35
75192;BME280;63771;52.580;9.734;2023-06-14T05:29:10;101495.25;;;15.43;62.51
75192;BME280;63771;52.580;9.734;2023-06-14T05:31:36;101506.34;;;15.53;62.30
75192;BME280;63771;52.580;9.734;2023-06-14T05:34:01;101503.22;;;15.57;62.36
75192;BME280;63771;52.580;9.734;2023-06-14T05:36:28;101502.44;;;15.58;62.26
75192;BME280;63771;52.580;9.734;2023-06-14T05:38:54;101501.13;;;15.63;61.81
75192;BME280;63771;52.580;9.734;2023-06-14T05:41:27;101496.44;;;15.70;61.36
75192;BME280;63771;52.580;9.734;2023-06-14T05:43:53;101502.03;;;15.76;61.41
75192;BME280;63771;52.580;9.734;2023-06-14T05:46:19;101506.63;;;15.80;61.08
75192;BME280;63771;52.580;9.734;2023-06-14T05:48:47;101513.88;;;15.85;60.72
75192;BME280;63771;52.580;9.734;2023-06-14T05:51:12;101513.22;;;15.88;60.62
75192;BME280;63771;52.580;9.734;2023-06-14T05:53:38;101513.69;;;15.94;60.46
75192;BME280;63771;52.580;9.734;2023-06-14T05:56:03;101509.97;;;16.02;60.39
75192;BME280;63771;52.580;9.734;2023-06-14T05:58:29;101511.88;;;16.05;59.95
75192;BME280;63771;52.580;9.734;2023-06-14T06:00:54;101509.53;;;16.08;60.04
75192;BME280;63771;52.580;9.734;2023-06-14T06:03:19;101509.75;;;16.11;59.64
75192;BME280;63771;52.580;9.734;2023-06-14T06:05:46;101504.84;;;16.14;59.13
75192;BME280;63771;52.580;9.734;2023-06-14T06:08:11;101510.50;;;16.22;59.18
75192;BME280;63771;52.580;9.734;2023-06-14T06:10:36;101517.78;;;16.27;58.75
75192;BME280;63771;52.580;9.734;2023-06-14T06:13:02;101517.31;;;16.33;59.71
75192;BME280;63771;52.580;9.734;2023-06-14T06:15:27;101523.59;;;16.36;58.80
75192;BME280;63771;52.580;9.734;2023-06-14T06:17:52;101524.59;;;16.38;58.85
75192;BME280;63771;52.580;9.734;2023-06-14T06:20:18;101517.44;;;16.46;59.24
75192;BME280;63771;52.580;9.734;2023-06-14T06:22:43;101522.59;;;16.46;58.28
75192;BME280;63771;52.580;9.734;2023-06-14T06:25:09;101518.31;;;16.47;58.28
75192;BME280;63771;52.580;9.734;2023-06-14T06:27:35;101522.91;;;16.51;58.08
75192;BME280;63771;52.580;9.734;2023-06-14T06:30:03;101520.66;;;16.55;58.19
75192;BME280;63771;52.580;9.734;2023-06-14T06:32:28;101522.78;;;16.61;58.93
75192;BME280;63771;52.580;9.734;2023-06-14T06:34:53;101530.94;;;16.67;57.78
75192;BME280;63771;52.580;9.734;2023-06-14T06:37:19;101532.97;;;16.71;58.00
75192;BME280;63771;52.580;9.734;2023-06-14T06:39:44;101526.34;;;16.75;57.58
75192;BME280;63771;52.580;9.734;2023-06-14T06:42:10;101527.69;;;16.81;57.61
75192;BME280;63771;52.580;9.734;2023-06-14T06:44:36;101530.69;;;16.87;57.06
75192;BME280;63771;52.580;9.734;2023-06-14T06:47:01;101529.97;;;16.90;56.39
75192;BME280;63771;52.580;9.734;2023-06-14T06:49:27;101539.72;;;16.94;57.75
75192;BME280;63771;52.580;9.734;2023-06-14T06:52:02;101534.00;;;16.98;57.01
75192;BME280;63771;52.580;9.734;2023-06-14T06:54:28;101540.56;;;17.06;56.06
75192;BME280;63771;52.580;9.734;2023-06-14T06:56:53;101536.63;;;17.11;56.05
75192;BME280;63771;52.580;9.734;2023-06-14T06:59:18;101540.31;;;17.15;56.14
75192;BME280;63771;52.580;9.734;2023-06-14T07:01:44;101539.75;;;17.19;55.55
75192;BME280;63771;52.580;9.734;2023-06-14T07:04:09;101537.25;;;17.20;54.98
75192;BME280;63771;52.580;9.734;2023-06-14T07:06:34;101543.53;;;17.24;54.78
75192;BME280;63771;52.580;9.734;2023-06-14T07:09:00;101533.06;;;17.22;55.23
75192;BME280;63771;52.580;9.734;2023-06-14T07:11:26;101550.97;;;17.33;54.97
75192;BME280;63771;52.580;9.734;2023-06-14T07:13:52;101547.81;;;17.37;53.85
75192;BME280;63771;52.580;9.734;2023-06-14T07:16:17;101538.59;;;17.40;54.70
75192;BME280;63771;52.580;9.734;2023-06-14T07:18:42;101541.50;;;17.45;54.58
75192;BME280;63771;52.580;9.734;2023-06-14T07:21:08;101541.03;;;17.51;54.60
75192;BME280;63771;52.580;9.734;2023-06-14T07:23:34;101547.28;;;17.54;54.54
75192;BME280;63771;52.580;9.734;2023-06-14T07:25:59;101540.75;;;17.59;53.43
75192;BME280;63771;52.580;9.734;2023-06-14T07:28:24;101551.25;;;17.62;54.20
75192;BME280;63771;52.580;9.734;2023-06-14T07:30:50;101542.94;;;17.66;53.66
75192;BME280;63771;52.580;9.734;2023-06-14T07:33:15;101538.88;;;17.70;54.87
75192;BME280;63771;52.580;9.734;2023-06-14T07:35:40;101528.09;;;17.76;53.60
75192;BME280;63771;52.580;9.734;2023-06-14T07:38:06;101534.34;;;17.79;54.38
75192;BME280;63771;52.580;9.734;2023-06-14T07:40:31;101534.94;;;17.88;52.24
75192;BME280;63771;52.580;9.734;2023-06-14T07:42:57;101528.69;;;17.85;52.64
75192;BME280;63771;52.580;9.734;2023-06-14T07:45:22;101533.56;;;17.93;53.35
75192;BME280;63771;52.580;9.734;2023-06-14T07:47:47;101529.69;;;18.00;52.55
75192;BME280;63771;52.580;9.734;2023-06-14T07:50:12;101539.41;;;18.04;54.41
75192;BME280;63771;52.580;9.734;2023-06-14T07:52:39;101532.06;;;18.10;53.60
75192;BME280;63771;52.580;9.734;2023-06-14T07:55:05;101532.44;;;18.16;52.47
75192;BME280;63771;52.580;9.734;2023-06-14T07:57:30;101525.81;;;18.20;51.57
75192;BME280;63771;52.580;9.734;2023-06-14T07:59:55;101527.88;;;18.25;52.41
75192;BME280;63771;52.580;9.734;2023-06-14T08:02:21;101529.16;;;18.32;51.86
75192;BME280;63771;52.580;9.734;2023-06-14T08:04:46;101532.25;;;18.40;49.77
75192;BME280;63771;52.580;9.734;2023-06-14T08:07:13;101538.59;;;18.45;50.05
75192;BME280;63771;52.580;9.734;2023-06-14T08:09:38;101538.00;;;18.49;49.71
75192;BME280;63771;52.580;9.734;2023-06-14T08:12:05;101530.03;;;18.59;48.45
75192;BME280;63771;52.580;9.734;2023-06-14T08:14:33;101533.59;;;18.61;49.19
75192;BME280;63771;52.580;9.734;2023-06-14T08:16:58;101530.31;;;18.64;50.68
75192;BME280;63771;52.580;9.734;2023-06-14T08:19:23;101534.28;;;18.72;49.26
75192;BME280;63771;52.580;9.734;2023-06-14T08:21:49;101529.63;;;18.80;48.66
75192;BME280;63771;52.580;9.734;2023-06-14T08:24:15;101538.56;;;18.85;49.10
75192;BME280;63771;52.580;9.734;2023-06-14T08:26:40;101537.31;;;18.93;48.55
75192;BME280;63771;52.580;9.734;2023-06-14T08:29:05;101530.81;;;18.99;47.63
75192;BME280;63771;52.580;9.734;2023-06-14T08:31:34;101523.34;;;19.04;46.86
75192;BME280;63771;52.580;9.734;2023-06-14T08:34:00;101529.50;;;19.06;47.97
75192;BME280;63771;52.580;9.734;2023-06-14T08:36:25;101523.44;;;19.06;48.46
75192;BME280;63771;52.580;9.734;2023-06-14T08:38:50;101516.66;;;19.08;48.78
75192;BME280;63771;52.580;9.734;2023-06-14T08:41:20;101526.47;;;19.13;47.97
75192;BME280;63771;52.580;9.734;2023-06-14T08:43:47;101527.66;;;19.18;47.18
75192;BME280;63771;52.580;9.734;2023-06-14T08:46:12;101527.31;;;19.27;46.40
75192;BME280;63771;52.580;9.734;2023-06-14T08:48:41;101525.97;;;19.34;46.10
75192;BME280;63771;52.580;9.734;2023-06-14T08:51:09;101525.38;;;19.38;46.60
75192;BME280;63771;52.580;9.734;2023-06-14T08:53:37;101524.72;;;19.42;47.08
75192;BME280;63771;52.580;9.734;2023-06-14T08:56:08;101527.16;;;19.53;45.75
75192;BME280;63771;52.580;9.734;2023-06-14T08:58:40;101524.72;;;19.56;45.88
75192;BME280;63771;52.580;9.734;2023-06-14T09:01:08;101524.22;;;19.62;45.51
75192;BME280;63771;52.580;9.734;2023-06-14T09:03:37;101525.22;;;19.64;47.21
75192;BME280;63771;52.580;9.734;2023-06-14T09:06:06;101521.75;;;19.64;47.83
75192;BME280;63771;52.580;9.734;2023-06-14T09:08:34;101520.13;;;19.66;47.96
75192;BME280;63771;52.580;9.734;2023-06-14T09:11:01;101527.63;;;19.76;46.32
75192;BME280;63771;52.580;9.734;2023-06-14T09:13:27;101530.75;;;19.85;46.04
75192;BME280;63771;52.580;9.734;2023-06-14T09:15:52;101525.84;;;19.90;45.84
75192;BME280;63771;52.580;9.734;2023-06-14T09:18:17;101535.66;;;19.95;46.42
75192;BME280;63771;52.580;9.734;2023-06-14T09:20:45;101527.34;;;20.01;45.55
75192;BME280;63771;52.580;9.734;2023-06-14T09:23:12;101529.94;;;20.01;47.10
75192;BME280;63771;52.580;9.734;2023-06-14T09:25:42;101533.28;;;20.15;45.45
75192;BME280;63771;52.580;9.734;2023-06-14T09:28:08;101533.53;;;20.19;45.65
75192;BME280;63771;52.580;9.734;2023-06-14T09:30:33;101530.00;;;20.17;46.80
75192;BME280;63771;52.580;9.734;2023-06-14T09:32:59;101529.63;;;20.26;45.72
75192;BME280;63771;52.580;9.734;2023-06-14T09:35:24;101532.63;;;20.33;45.93
75192;BME280;63771;52.580;9.734;2023-06-14T09:37:50;101529.34;;;20.36;46.40
75192;BME280;63771;52.580;9.734;2023-06-14T09:40:20;101528.03;;;20.44;45.68
75192;BME280;63771;52.580;9.734;2023-06-14T09:42:45;101529.28;;;20.51;45.33
75192;BME280;63771;52.580;9.734;2023-06-14T09:45:11;101528.56;;;20.53;45.36
75192;BME280;63771;52.580;9.734;2023-06-14T09:47:38;101524.47;;;20.57;45.06
75192;BME280;63771;52.580;9.734;2023-06-14T09:50:04;101523.97;;;20.64;45.02
75192;BME280;63771;52.580;9.734;2023-06-14T09:52:29;101524.13;;;20.67;46.09
75192;BME280;63771;52.580;9.734;2023-06-14T09:54:58;101531.38;;;20.73;45.96
75192;BME280;63771;52.580;9.734;2023-06-14T09:57:25;101529.91;;;20.78;44.74
75192;BME280;63771;52.580;9.734;2023-06-14T09:59:57;101524.81;;;20.79;45.71
75192;BME280;63771;52.580;9.734;2023-06-14T10:02:28;101522.53;;;20.85;43.66
75192;BME280;63771;52.580;9.734;2023-06-14T10:05:15;101527.22;;;20.93;44.15
75192;BME280;63771;52.580;9.734;2023-06-14T10:07:42;101529.09;;;20.95;44.04
75192;BME280;63771;52.580;9.734;2023-06-14T10:10:10;101522.91;;;20.93;43.95
75192;BME280;63771;52.580;9.734;2023-06-14T10:12:36;101512.47;;;20.92;44.23
75192;BME280;63771;52.580;9.734;2023-06-14T10:15:01;101499.56;;;20.93;44.05
75192;BME280;63771;52.580;9.734;2023-06-14T10:17:39;101519.09;;;21.03;44.02
75192;BME280;63771;52.580;9.734;2023-06-14T10:22:50;101511.66;;;21.09;45.76
75192;BME280;63771;52.580;9.734;2023-06-14T10:25:27;101507.91;;;21.20;44.42
75192;BME280;63771;52.580;9.734;2023-06-14T10:28:02;101502.56;;;21.33;44.30
75192;BME280;63771;52.580;9.734;2023-06-14T10:30:27;101498.78;;;21.45;44.50
75192;BME280;63771;52.580;9.734;2023-06-14T10:33:08;101501.16;;;21.56;42.77
75192;BME280;63771;52.580;9.734;2023-06-14T10:35:34;101508.13;;;21.57;44.48
75192;BME280;63771;52.580;9.734;2023-06-14T10:38:11;101505.88;;;21.65;42.66
75192;BME280;63771;52.580;9.734;2023-06-14T10:40:36;101499.22;;;21.70;43.69
75192;BME280;63771;52.580;9.734;2023-06-14T10:43:21;101505.31;;;21.88;41.76
75192;BME280;63771;52.580;9.734;2023-06-14T10:46:13;101491.72;;;21.94;44.24
75192;BME280;63771;52.580;9.734;2023-06-14T10:48:42;101494.19;;;22.09;43.55
75192;BME280;63771;52.580;9.734;2023-06-14T10:51:18;101494.34;;;22.12;43.16
75192;BME280;63771;52.580;9.734;2023-06-14T10:53:49;101503.63;;;22.25;40.65
75192;BME280;63771;52.580;9.734;2023-06-14T10:56:29;101491.63;;;22.28;42.98
75192;BME280;63771;52.580;9.734;2023-06-14T10:58:59;101499.81;;;22.36;43.84
75192;BME280;63771;52.580;9.734;2023-06-14T11:01:36;101494.22;;;22.46;42.85
75192;BME280;63771;52.580;9.734;2023-06-14T11:04:09;101497.38;;;22.58;42.06
75192;BME280;63771;52.580;9.734;2023-06-14T11:06:48;101497.53;;;22.61;42.01
75192;BME280;63771;52.580;9.734;2023-06-14T11:12:17;101499.25;;;22.61;42.94
75192;BME280;63771;52.580;9.734;2023-06-14T11:14:46;101500.53;;;22.51;41.76
75192;BME280;63771;52.580;9.734;2023-06-14T11:17:12;101499.50;;;22.48;42.13
75192;BME280;63771;52.580;9.734;2023-06-14T11:19:37;101501.25;;;22.49;42.39
75192;BME280;63771;52.580;9.734;2023-06-14T11:22:02;101494.56;;;22.54;42.70
75192;BME280;63771;52.580;9.734;2023-06-14T11:24:28;101496.06;;;22.49;41.39
75192;BME280;63771;52.580;9.734;2023-06-14T11:26:55;101484.81;;;22.50;41.72
75192;BME280;63771;52.580;9.734;2023-06-14T11:29:21;101483.00;;;22.47;41.97
75192;BME280;63771;52.580;9.734;2023-06-14T11:31:47;101486.41;;;22.46;42.08
75192;BME280;63771;52.580;9.734;2023-06-14T11:34:12;101497.56;;;22.44;42.01
75192;BME280;63771;52.580;9.734;2023-06-14T11:36:39;101481.69;;;22.37;41.88
75192;BME280;63771;52.580;9.734;2023-06-14T11:39:06;101485.94;;;22.35;42.27
75192;BME280;63771;52.580;9.734;2023-06-14T11:41:43;101487.75;;;22.38;42.50
75192;BME280;63771;52.580;9.734;2023-06-14T11:44:09;101482.78;;;22.43;45.41
75192;BME280;63771;52.580;9.734;2023-06-14T11:46:35;101489.25;;;22.51;45.14
75192;BME280;63771;52.580;9.734;2023-06-14T11:49:01;101476.72;;;22.61;43.19
75192;BME280;63771;52.580;9.734;2023-06-14T11:51:28;101470.91;;;22.67;43.04
75192;BME280;63771;52.580;9.734;2023-06-14T11:53:54;101470.22;;;22.71;41.60
75192;BME280;63771;52.580;9.734;2023-06-14T11:56:19;101467.31;;;22.65;41.59
75192;BME280;63771;52.580;9.734;2023-06-14T11:58:45;101478.50;;;22.62;44.06
75192;BME280;63771;52.580;9.734;2023-06-14T12:01:17;101472.53;;;22.65;42.08
75192;BME280;63771;52.580;9.734;2023-06-14T12:03:50;101478.50;;;22.62;42.40
75192;BME280;63771;52.580;9.734;2023-06-14T12:06:16;101475.06;;;22.63;43.90
75192;BME280;63771;52.580;9.734;2023-06-14T12:08:43;101465.69;;;22.67;42.22
75192;BME280;63771;52.580;9.734;2023-06-14T12:11:11;101455.56;;;22.73;43.93
75192;BME280;63771;52.580;9.734;2023-06-14T12:13:39;101459.25;;;22.78;42.10
75192;BME280;63771;52.580;9.734;2023-06-14T12:16:11;101454.94;;;22.79;40.81
75192;BME280;63771;52.580;9.734;2023-06-14T12:18:39;101458.41;;;22.79;40.87
75192;BME280;63771;52.580;9.734;2023-06-14T12:21:06;101458.34;;;22.78;40.47
75192;BME280;63771;52.580;9.734;2023-06-14T12:26:12;101451.44;;;22.78;41.87
75192;BME280;63771;52.580;9.734;2023-06-14T12:28:40;101452.47;;;22.82;43.74
75192;BME280;63771;52.580;9.734;2023-06-14T12:31:05;101450.28;;;22.91;42.25
75192;BME280;63771;52.580;9.734;2023-06-14T12:33:31;101454.88;;;22.97;42.88
75192;BME280;63771;52.580;9.734;2023-06-14T12:35:56;101448.28;;;23.05;42.09
75192;BME280;63771;52.580;9.734;2023-06-14T12:38:24;101450.59;;;23.18;38.04
75192;BME280;63771;52.580;9.734;2023-06-14T12:40:49;101450.88;;;23.24;39.09
75192;BME280;63771;52.580;9.734;2023-06-14T12:43:14;101451.13;;;23.30;39.32
75192;BME280;63771;52.580;9.734;2023-06-14T12:45:40;101453.91;;;23.35;40.61
75192;BME280;63771;52.580;9.734;2023-06-14T12:48:05;101447.19;;;23.40;39.52
75192;BME280;63771;52.580;9.734;2023-06-14T12:50:30;101446.53;;;23.46;38.31
75192;BME280;63771;52.580;9.734;2023-06-14T12:52:56;101446.59;;;23.47;39.23
75192;BME280;63771;52.580;9.734;2023-06-14T12:55:21;101440.50;;;23.47;37.57
75192;BME280;63771;52.580;9.734;2023-06-14T12:57:46;101442.84;;;23.40;38.34
75192;BME280;63771;52.580;9.734;2023-06-14T13:00:15;101437.66;;;23.40;39.61
75192;BME280;63771;52.580;9.734;2023-06-14T13:02:40;101443.50;;;23.35;38.75